createdAt,value
2018-07-03T13:56:20.471Z,23.51
2018-07-03T13:57:20.525Z,23.48
2018-07-03T13:58:20.547Z,23.58
2018-07-03T13:59:20.574Z,24.09
2018-07-03T14:00:20.601Z,24.10
2018-07-03T14:01:20.626Z,24.50
2018-07-03T14:02:20.712Z,23.54
2018-07-03T14:03:20.680Z,23.87
2018-07-03T14:04:20.707Z,23.84
2018-07-03T14:05:20.729Z,24.00
2018-07-03T14:06:20.759Z,24.02
2018-07-03T14:07:20.785Z,24.13
2018-07-03T14:08:20.810Z,24.16
2018-07-03T14:09:20.837Z,24.57
2018-07-03T14:10:20.865Z,24.31
2018-07-03T14:11:20.891Z,24.53
2018-07-03T14:12:20.918Z,24.50
2018-07-03T14:13:20.948Z,24.37
2018-07-03T14:14:20.995Z,24.42
2018-07-03T14:15:20.997Z,24.55
2018-07-03T14:16:21.025Z,24.25
2018-07-03T14:17:21.051Z,24.87
2018-07-03T14:18:21.077Z,24.83
2018-07-03T14:19:21.109Z,24.45
2018-07-03T14:20:21.135Z,23.70
2018-07-03T14:21:21.165Z,23.84
2018-07-03T14:22:21.192Z,24.18
2018-07-03T14:23:21.216Z,24.27
2018-07-03T14:24:21.244Z,24.09
2018-07-03T14:25:21.277Z,24.12
2018-07-03T14:26:21.296Z,24.22
2018-07-03T14:27:21.326Z,23.32
2018-07-03T14:28:21.351Z,23.87
2018-07-03T14:29:21.379Z,24.18
2018-07-03T14:30:21.407Z,23.43
2018-07-03T14:31:21.435Z,23.28
2018-07-03T14:32:21.463Z,23.10
2018-07-03T14:33:21.489Z,23.40
2018-07-03T14:34:21.515Z,23.83
2018-07-03T14:35:21.545Z,24.02
2018-07-03T14:36:21.600Z,23.70
2018-07-03T14:37:21.599Z,24.30
2018-07-03T14:38:21.626Z,24.18
2018-07-03T14:39:21.657Z,24.45
2018-07-03T14:40:21.680Z,23.79
2018-07-03T14:41:21.710Z,24.13
2018-07-03T14:42:21.735Z,24.78
2018-07-03T14:43:21.765Z,24.78
2018-07-03T14:44:21.791Z,25.05
2018-07-03T14:45:21.818Z,24.62
2018-07-03T14:46:21.846Z,25.08
2018-07-03T14:47:21.873Z,24.91
2018-07-03T14:48:21.905Z,24.47
2018-07-03T14:49:21.930Z,23.69
2018-07-03T14:50:21.957Z,23.76
2018-07-03T14:51:21.985Z,22.92
2018-07-03T14:52:22.012Z,22.58
2018-07-03T14:53:22.039Z,23.25
2018-07-03T14:54:22.067Z,23.63
2018-07-03T14:55:22.101Z,23.61
2018-07-03T14:56:22.132Z,23.80
2018-07-03T14:57:22.150Z,23.38
2018-07-03T14:58:22.181Z,23.79
2018-07-03T14:59:22.205Z,24.15
2018-07-03T15:00:22.234Z,24.09
2018-07-03T15:01:22.259Z,23.23
2018-07-03T15:02:22.336Z,23.68
2018-07-03T15:03:22.315Z,23.95
2018-07-03T15:04:22.343Z,24.30
2018-07-03T15:05:22.371Z,24.31
2018-07-03T15:06:22.399Z,23.98
2018-07-03T15:07:22.457Z,23.01
2018-07-03T15:08:22.455Z,23.48
2018-07-03T15:09:22.479Z,23.48
2018-07-03T15:10:22.509Z,24.13
2018-07-03T15:11:22.534Z,23.94
2018-07-03T15:12:22.563Z,24.21
2018-07-03T15:13:22.590Z,24.39
2018-07-03T15:14:22.616Z,24.76
2018-07-03T15:15:22.645Z,24.55
2018-07-03T15:16:22.673Z,24.65
2018-07-03T15:17:22.701Z,24.34
2018-07-03T15:18:22.727Z,24.09
2018-07-03T15:19:22.755Z,23.87
2018-07-03T15:20:22.798Z,23.04
2018-07-03T15:21:22.810Z,23.19
2018-07-03T15:22:22.835Z,23.39
2018-07-03T15:23:22.863Z,23.55
2018-07-03T15:24:22.893Z,23.57
2018-07-03T15:25:22.918Z,23.95
2018-07-03T15:26:22.947Z,24.50
2018-07-03T15:27:22.977Z,24.09
2018-07-03T15:28:23.002Z,24.45
2018-07-03T15:29:23.027Z,24.21
2018-07-03T15:30:23.055Z,23.20
2018-07-03T15:31:23.082Z,23.47
2018-07-03T15:32:23.112Z,23.50
2018-07-03T15:33:23.138Z,24.15
2018-07-03T15:34:23.166Z,23.75
2018-07-03T15:35:23.191Z,23.65
2018-07-03T15:36:23.218Z,23.85
2018-07-03T15:37:23.247Z,23.20
2018-07-03T15:38:23.273Z,23.05
2018-07-03T15:39:23.300Z,22.68
2018-07-03T15:40:23.329Z,23.28
2018-07-03T15:41:23.354Z,23.36
2018-07-03T15:42:23.381Z,23.46
2018-07-03T15:43:23.409Z,23.48
2018-07-03T15:44:23.437Z,23.51
2018-07-03T15:45:23.465Z,23.76
2018-07-03T15:46:23.492Z,24.18
2018-07-03T15:47:23.520Z,23.79
2018-07-03T15:48:23.546Z,23.17
2018-07-03T15:49:23.571Z,23.51
2018-07-03T15:50:23.600Z,22.94
2018-07-03T15:51:23.632Z,23.48
2018-07-03T15:52:23.654Z,23.91
2018-07-03T15:53:23.682Z,24.09
2018-07-03T15:54:23.707Z,24.40
2018-07-03T15:55:23.734Z,24.77
2018-07-03T15:56:23.764Z,24.93
2018-07-03T15:57:23.790Z,24.73
2018-07-03T15:58:23.819Z,24.71
2018-07-03T15:59:23.847Z,24.02
2018-07-03T16:00:23.871Z,23.72
2018-07-03T16:01:23.944Z,24.09
2018-07-03T16:02:23.945Z,24.08
2018-07-03T16:03:23.953Z,23.88
2018-07-03T16:04:23.982Z,23.87
2018-07-03T16:05:24.009Z,23.04
2018-07-03T16:06:24.036Z,22.25
2018-07-03T16:07:24.064Z,22.62
2018-07-03T16:08:24.097Z,22.25
2018-07-03T16:09:24.175Z,22.18
2018-07-03T16:10:24.145Z,22.20
2018-07-03T16:11:24.175Z,21.46
2018-07-03T16:12:24.203Z,21.31
2018-07-03T16:13:24.228Z,21.68
2018-07-03T16:14:24.253Z,21.82
2018-07-03T16:15:24.283Z,21.98
2018-07-03T16:16:24.308Z,22.05
2018-07-03T16:17:24.334Z,21.92
2018-07-03T16:18:24.361Z,21.64
2018-07-03T16:19:24.389Z,21.69
2018-07-03T16:20:24.415Z,21.13
2018-07-03T16:21:24.453Z,21.21
2018-07-03T16:22:24.466Z,21.35
2018-07-03T16:23:24.493Z,21.59
2018-07-03T16:24:24.520Z,21.80
2018-07-03T16:25:24.618Z,22.39
2018-07-03T16:26:24.574Z,22.36
2018-07-03T16:27:24.602Z,22.39
2018-07-03T16:28:24.626Z,22.36
2018-07-03T16:29:24.650Z,22.25
2018-07-03T16:30:24.677Z,22.37
2018-07-03T16:31:24.707Z,22.33
2018-07-03T16:32:24.731Z,22.33
2018-07-03T16:33:24.755Z,22.79
2018-07-03T16:34:24.783Z,23.04
2018-07-03T16:35:24.810Z,23.01
2018-07-03T16:36:24.836Z,22.80
2018-07-03T16:37:24.861Z,22.12
2018-07-03T16:38:24.888Z,22.25
2018-07-03T16:39:24.914Z,22.05
2018-07-03T16:40:24.944Z,21.72
2018-07-03T16:41:24.968Z,22.14
2018-07-03T16:42:24.994Z,22.40
2018-07-03T16:43:25.026Z,22.49
2018-07-03T16:44:25.056Z,22.43
2018-07-03T16:45:25.109Z,22.60
2018-07-03T16:46:25.101Z,22.33
2018-07-03T16:47:25.126Z,22.61
2018-07-03T16:48:25.152Z,22.82
2018-07-03T16:49:25.179Z,23.07
2018-07-03T16:50:25.206Z,22.52
2018-07-03T16:51:25.233Z,22.45
2018-07-03T16:52:25.257Z,22.62
2018-07-03T16:53:25.283Z,22.61
2018-07-03T16:54:25.313Z,22.70
2018-07-03T16:55:25.340Z,22.39
2018-07-03T16:56:25.365Z,22.17
2018-07-03T16:57:25.389Z,21.75
2018-07-03T16:58:25.418Z,21.79
2018-07-03T16:59:25.443Z,21.35
2018-07-03T17:00:25.469Z,21.61
2018-07-03T17:01:25.497Z,21.17
2018-07-03T17:02:25.521Z,21.19
2018-07-03T17:03:25.550Z,21.10
2018-07-03T17:04:25.575Z,21.22
2018-07-03T17:05:25.599Z,21.22
2018-07-03T17:06:25.628Z,20.82
2018-07-03T17:07:25.654Z,20.26
2018-07-03T17:08:25.680Z,20.06
2018-07-03T17:09:25.705Z,20.21
2018-07-03T17:10:25.728Z,20.51
2018-07-03T17:11:25.755Z,20.54
2018-07-03T17:12:25.782Z,20.67
2018-07-03T17:13:25.805Z,20.82
2018-07-03T17:14:25.839Z,20.85
2018-07-03T17:15:25.865Z,20.82
2018-07-03T17:16:25.881Z,20.80
2018-07-03T17:17:25.909Z,20.97
2018-07-03T17:18:25.933Z,20.91
2018-07-03T17:19:25.959Z,21.12
2018-07-03T17:20:25.984Z,21.16
2018-07-03T17:21:26.008Z,20.98
2018-07-03T17:22:26.040Z,21.03
2018-07-03T17:23:26.060Z,20.95
2018-07-03T17:24:26.088Z,20.39
2018-07-03T17:25:26.113Z,20.47
2018-07-03T17:26:26.140Z,20.43
2018-07-03T17:27:26.164Z,20.43
2018-07-03T17:28:26.205Z,20.48
2018-07-03T17:29:26.213Z,20.47
2018-07-03T17:30:26.241Z,20.02
2018-07-03T17:31:26.265Z,19.61
2018-07-03T17:32:26.289Z,19.65
2018-07-03T17:33:26.314Z,19.81
2018-07-03T17:34:26.339Z,19.77
2018-07-03T17:35:26.365Z,19.83
2018-07-03T17:36:26.392Z,19.81
2018-07-03T17:37:26.414Z,19.95
2018-07-03T17:38:26.440Z,20.01
2018-07-03T17:39:26.466Z,20.02
2018-07-03T17:40:26.493Z,19.99
2018-07-03T17:41:26.515Z,20.02
2018-07-03T17:42:26.540Z,19.92
2018-07-03T17:43:26.565Z,19.86
2018-07-03T17:44:26.593Z,19.96
2018-07-03T17:45:26.615Z,19.86
2018-07-03T17:46:26.644Z,19.84
2018-07-03T17:47:26.670Z,19.84
2018-07-03T17:48:26.692Z,19.86
2018-07-03T17:49:26.719Z,19.91
2018-07-03T17:50:26.740Z,19.92
2018-07-03T17:51:26.766Z,19.94
2018-07-03T17:52:26.802Z,19.95
2018-07-03T17:53:26.813Z,20.01
2018-07-03T17:54:26.838Z,19.99
2018-07-03T17:55:26.865Z,20.03
2018-07-03T17:56:26.891Z,19.91
2018-07-03T17:57:27.131Z,19.94
2018-07-03T17:58:26.938Z,19.76
2018-07-03T17:59:26.964Z,19.78
2018-07-03T18:00:26.990Z,19.76
2018-07-03T18:01:27.013Z,19.41
2018-07-03T18:02:27.038Z,19.41
2018-07-03T18:03:27.065Z,19.26
2018-07-03T18:04:27.089Z,19.10
2018-07-03T18:05:27.115Z,18.76
2018-07-03T18:06:27.137Z,18.52
2018-07-03T18:07:27.168Z,18.42
2018-07-03T18:08:27.188Z,18.42
2018-07-03T18:09:27.211Z,18.45
2018-07-03T18:10:27.247Z,18.33
2018-07-03T18:11:27.260Z,18.30
2018-07-03T18:12:27.289Z,18.15
2018-07-03T18:13:27.309Z,18.11
2018-07-03T18:14:27.355Z,17.97
2018-07-03T18:15:27.358Z,17.59
2018-07-03T18:16:27.383Z,17.33
2018-07-03T18:17:27.408Z,17.01
2018-07-03T18:18:27.442Z,16.86
2018-07-03T18:19:27.456Z,16.78
2018-07-03T18:20:27.479Z,16.75
2018-07-03T18:21:27.501Z,16.63
2018-07-03T18:22:27.524Z,16.58
2018-07-03T18:23:27.550Z,16.45
2018-07-03T18:24:27.570Z,16.07
2018-07-03T18:25:27.595Z,16.01
2018-07-03T18:26:27.618Z,15.92
2018-07-03T18:27:27.641Z,15.62
2018-07-03T18:28:27.667Z,15.75
2018-07-03T18:29:27.687Z,15.75
2018-07-03T18:30:27.711Z,15.76
2018-07-03T18:31:27.732Z,15.80
2018-07-03T18:32:27.761Z,15.74
2018-07-03T18:33:27.778Z,15.87
2018-07-03T18:34:27.802Z,15.92
2018-07-03T18:35:27.825Z,16.07
2018-07-03T18:36:27.852Z,16.08
2018-07-03T18:37:27.870Z,16.20
2018-07-03T18:38:27.892Z,16.28
2018-07-03T18:39:27.916Z,16.27
2018-07-03T18:40:27.944Z,16.33
2018-07-03T18:41:27.957Z,16.25
2018-07-03T18:42:27.980Z,16.24
2018-07-03T18:43:28.003Z,16.17
2018-07-03T18:44:28.025Z,16.15
2018-07-03T18:45:28.052Z,16.05
2018-07-03T18:46:28.071Z,15.83
2018-07-03T18:47:28.159Z,15.86
2018-07-03T18:48:28.123Z,15.86
2018-07-03T18:49:28.139Z,15.89
2018-07-03T18:50:28.158Z,15.93
2018-07-03T18:51:28.182Z,15.96
2018-07-03T18:52:28.207Z,16.04
2018-07-03T18:53:28.225Z,15.96
2018-07-03T18:54:28.358Z,15.93
2018-07-03T18:55:28.268Z,15.96
2018-07-03T18:56:28.289Z,15.89
2018-07-03T18:57:28.312Z,15.87
2018-07-03T18:58:28.333Z,15.84
2018-07-03T18:59:28.356Z,15.94
2018-07-03T19:00:28.415Z,15.97
2018-07-03T19:01:28.403Z,16.11
2018-07-03T19:02:28.422Z,16.15
2018-07-03T19:03:28.472Z,16.28
2018-07-03T19:04:28.465Z,16.28
2018-07-03T19:05:28.486Z,16.33
2018-07-03T19:06:28.510Z,16.27
2018-07-03T19:07:28.532Z,16.33
2018-07-03T19:08:28.550Z,16.24
2018-07-03T19:09:28.574Z,16.27
2018-07-03T19:10:28.595Z,16.15
2018-07-03T19:11:28.619Z,16.08
2018-07-03T19:12:28.638Z,15.97
2018-07-03T19:13:28.658Z,15.96
2018-07-03T19:14:28.682Z,16.00
2018-07-03T19:15:28.705Z,15.93
2018-07-03T19:16:28.753Z,15.94
2018-07-03T19:17:28.755Z,15.89
2018-07-03T19:18:28.766Z,15.92
2018-07-03T19:19:28.790Z,15.82
2018-07-03T19:20:28.811Z,15.57
2018-07-03T19:21:28.831Z,15.50
2018-07-03T19:22:28.861Z,15.46
2018-07-03T19:23:28.874Z,15.29
2018-07-03T19:24:28.898Z,14.96
2018-07-03T19:25:28.917Z,14.83
2018-07-03T19:26:28.945Z,14.78
2018-07-03T19:27:28.963Z,14.65
2018-07-03T19:28:28.987Z,14.55
2018-07-03T19:29:29.007Z,14.46
2018-07-03T19:30:29.026Z,14.62
2018-07-03T19:31:29.046Z,14.57
2018-07-03T19:32:29.068Z,14.57
2018-07-03T19:33:29.086Z,14.57
2018-07-03T19:34:29.112Z,14.43
2018-07-03T19:35:29.131Z,14.35
2018-07-03T19:36:29.155Z,14.20
2018-07-03T19:37:29.172Z,14.14
2018-07-03T19:38:29.191Z,14.10
2018-07-03T19:39:29.212Z,14.04
2018-07-03T19:40:29.233Z,13.89
2018-07-03T19:41:29.253Z,13.88
2018-07-03T19:42:29.330Z,13.87
2018-07-03T19:43:29.294Z,13.85
2018-07-03T19:44:29.321Z,13.77
2018-07-03T19:45:29.334Z,13.88
2018-07-03T19:46:29.359Z,13.89
2018-07-03T19:47:29.374Z,14.03
2018-07-03T19:48:29.394Z,14.14
2018-07-03T19:49:29.417Z,14.14
2018-07-03T19:50:29.436Z,14.15
2018-07-03T19:51:29.455Z,14.25
2018-07-03T19:52:29.475Z,14.28
2018-07-03T19:53:29.494Z,14.28
2018-07-03T19:54:29.513Z,14.28
2018-07-03T19:55:29.532Z,14.32
2018-07-03T19:56:29.587Z,14.22
2018-07-03T19:57:29.571Z,14.22
2018-07-03T19:58:29.597Z,14.18
2018-07-03T19:59:29.610Z,14.27
2018-07-03T20:00:29.629Z,14.25
2018-07-03T20:01:29.652Z,14.32
2018-07-03T20:02:29.671Z,14.28
2018-07-03T20:03:29.690Z,14.29
2018-07-03T20:04:29.707Z,14.29
2018-07-03T20:05:29.729Z,14.33
2018-07-03T20:06:29.747Z,14.32
2018-07-03T20:07:29.785Z,14.35
2018-07-03T20:08:29.786Z,14.43
2018-07-03T20:09:29.804Z,14.52
2018-07-03T20:10:29.826Z,14.54
2018-07-03T20:11:29.845Z,14.60
2018-07-03T20:12:29.865Z,14.61
2018-07-03T20:13:29.882Z,14.70
2018-07-03T20:14:29.902Z,14.72
2018-07-03T20:15:29.925Z,14.69
2018-07-03T20:16:29.942Z,14.64
2018-07-03T20:17:29.966Z,14.69
2018-07-03T20:18:29.983Z,14.65
2018-07-03T20:19:30.006Z,14.73
2018-07-03T20:20:30.024Z,14.72
2018-07-03T20:21:30.043Z,14.78
2018-07-03T20:22:30.063Z,14.78
2018-07-03T20:23:30.081Z,14.91
2018-07-03T20:24:30.102Z,14.83
2018-07-03T20:25:30.122Z,14.89
2018-07-03T20:26:30.142Z,14.84
2018-07-03T20:27:30.161Z,14.75
2018-07-03T20:28:30.181Z,14.92
2018-07-03T20:29:30.201Z,14.86
2018-07-03T20:30:30.221Z,14.91
2018-07-03T20:31:30.241Z,14.84
2018-07-03T20:32:30.266Z,14.91
2018-07-03T20:33:30.280Z,14.75
2018-07-03T20:34:30.300Z,14.84
2018-07-03T20:35:30.325Z,14.78
2018-07-03T20:36:30.344Z,14.68
2018-07-03T20:37:30.360Z,14.73
2018-07-03T20:38:30.380Z,14.68
2018-07-03T20:39:30.402Z,14.58
2018-07-03T20:40:30.421Z,14.60
2018-07-03T20:41:30.441Z,14.47
2018-07-03T20:42:30.498Z,14.46
2018-07-03T20:43:30.484Z,14.46
2018-07-03T20:44:30.500Z,14.37
2018-07-03T20:45:30.520Z,14.33
2018-07-03T20:46:30.539Z,14.33
2018-07-03T20:47:30.560Z,14.33
2018-07-03T20:48:30.585Z,14.29
2018-07-03T20:49:30.601Z,14.29
2018-07-03T20:50:30.623Z,14.29
2018-07-03T20:51:30.642Z,14.28
2018-07-03T20:52:30.659Z,14.24
2018-07-03T20:53:30.679Z,14.20
2018-07-03T20:54:30.703Z,14.28
2018-07-03T20:55:30.718Z,14.24
2018-07-03T20:56:30.738Z,14.25
2018-07-03T20:57:30.758Z,14.28
2018-07-03T20:58:30.779Z,14.33
2018-07-03T20:59:30.798Z,14.33
2018-07-03T21:00:30.816Z,14.50
2018-07-03T21:01:30.837Z,14.39
2018-07-03T21:02:30.856Z,14.45
2018-07-03T21:03:30.875Z,14.43
2018-07-03T21:04:30.952Z,14.52
2018-07-03T21:05:30.915Z,14.52
2018-07-03T21:06:30.939Z,14.45
2018-07-03T21:07:30.955Z,14.55
2018-07-03T21:08:30.974Z,14.43
2018-07-03T21:09:30.998Z,14.47
2018-07-03T21:10:31.067Z,14.50
2018-07-03T21:11:31.072Z,14.43
2018-07-03T21:12:31.054Z,14.50
2018-07-03T21:13:31.072Z,14.50
2018-07-03T21:14:31.096Z,14.52
2018-07-03T21:15:31.118Z,14.50
2018-07-03T21:16:31.132Z,14.46
2018-07-03T21:17:31.152Z,14.47
2018-07-03T21:18:31.172Z,14.42
2018-07-03T21:19:31.191Z,14.40
2018-07-03T21:20:31.210Z,14.36
2018-07-03T21:21:31.230Z,14.37
2018-07-03T21:22:31.250Z,14.28
2018-07-03T21:23:31.268Z,14.35
2018-07-03T21:24:31.411Z,14.35
2018-07-03T21:25:31.307Z,14.33
2018-07-03T21:26:31.327Z,14.36
2018-07-03T21:27:31.349Z,14.29
2018-07-03T21:28:31.372Z,14.35
2018-07-03T21:29:31.387Z,14.36
2018-07-03T21:30:31.408Z,14.35
2018-07-03T21:31:31.433Z,14.43
2018-07-03T21:32:31.446Z,14.40
2018-07-03T21:33:31.466Z,14.42
2018-07-03T21:34:31.485Z,14.42
2018-07-03T21:35:31.505Z,14.43
2018-07-03T21:36:31.524Z,14.45
2018-07-03T21:37:31.543Z,14.52
2018-07-03T21:38:31.613Z,14.47
2018-07-03T21:39:31.583Z,14.46
2018-07-03T21:40:31.611Z,14.47
2018-07-03T21:41:31.623Z,14.55
2018-07-03T21:42:31.641Z,14.50
2018-07-03T21:43:31.662Z,14.61
2018-07-03T21:44:31.684Z,14.60
2018-07-03T21:45:31.703Z,14.57
2018-07-03T21:46:31.719Z,14.55
2018-07-03T21:47:31.740Z,14.42
2018-07-03T21:48:31.760Z,14.39
2018-07-03T21:49:31.777Z,14.50
2018-07-03T21:50:31.797Z,14.37
2018-07-03T21:51:31.818Z,14.35
2018-07-03T21:52:31.836Z,14.36
2018-07-03T21:53:31.855Z,14.33
2018-07-03T21:54:31.877Z,14.42
2018-07-03T21:55:31.895Z,14.35
2018-07-03T21:56:31.916Z,14.29
2018-07-03T21:57:31.934Z,14.24
2018-07-03T21:58:31.952Z,14.29
2018-07-03T21:59:31.973Z,14.32
2018-07-03T22:00:31.998Z,14.29
2018-07-03T22:01:32.014Z,14.28
2018-07-03T22:02:32.033Z,14.32
2018-07-03T22:03:32.054Z,14.37
2018-07-03T22:04:32.074Z,14.33
2018-07-03T22:05:32.098Z,14.43
2018-07-03T22:06:32.115Z,14.42
2018-07-03T22:07:32.136Z,14.42
2018-07-03T22:08:32.157Z,14.42
2018-07-03T22:09:32.171Z,14.40
2018-07-03T22:10:32.193Z,14.54
2018-07-03T22:11:32.209Z,14.51
2018-07-03T22:12:32.232Z,14.50
2018-07-03T22:13:32.250Z,14.51
2018-07-03T22:14:32.269Z,14.47
2018-07-03T22:15:32.296Z,14.51
2018-07-03T22:16:32.309Z,14.46
2018-07-03T22:17:32.328Z,14.47
2018-07-03T22:18:32.347Z,14.47
2018-07-03T22:19:32.370Z,14.55
2018-07-03T22:20:32.392Z,14.57
2018-07-03T22:21:32.408Z,14.61
2018-07-03T22:22:32.426Z,14.61
2018-07-03T22:23:32.449Z,14.58
2018-07-03T22:24:32.466Z,14.61
2018-07-03T22:25:32.485Z,14.62
2018-07-03T22:26:32.505Z,14.55
2018-07-03T22:27:32.525Z,14.58
2018-07-03T22:28:32.547Z,14.46
2018-07-03T22:29:32.565Z,14.60
2018-07-03T22:30:32.589Z,14.60
2018-07-03T22:31:32.606Z,14.57
2018-07-03T22:32:32.626Z,14.62
2018-07-03T22:33:32.643Z,14.60
2018-07-03T22:34:32.664Z,14.58
2018-07-03T22:35:32.697Z,14.57
2018-07-03T22:36:32.706Z,14.52
2018-07-03T22:37:32.724Z,14.42
2018-07-03T22:38:32.741Z,14.40
2018-07-03T22:39:32.780Z,14.45
2018-07-03T22:40:32.787Z,14.42
2018-07-03T22:41:32.802Z,14.25
2018-07-03T22:42:32.827Z,14.33
2018-07-03T22:43:32.843Z,14.25
2018-07-03T22:44:32.862Z,14.35
2018-07-03T22:45:32.882Z,14.32
2018-07-03T22:46:32.900Z,14.27
2018-07-03T22:47:32.921Z,14.29
2018-07-03T22:48:32.940Z,14.32
2018-07-03T22:49:32.960Z,14.28
2018-07-03T22:50:32.979Z,14.32
2018-07-03T22:51:32.999Z,14.27
2018-07-03T22:52:33.020Z,14.35
2018-07-03T22:53:33.041Z,14.27
2018-07-03T22:54:33.059Z,14.28
2018-07-03T22:55:33.077Z,14.36
2018-07-03T22:56:33.097Z,14.35
2018-07-03T22:57:33.115Z,14.28
2018-07-03T22:58:33.184Z,14.28
2018-07-03T22:59:33.157Z,14.33
2018-07-03T23:00:33.175Z,14.35
2018-07-03T23:01:33.194Z,14.36
2018-07-03T23:02:33.216Z,14.33
2018-07-03T23:03:33.233Z,14.32
2018-07-03T23:04:33.256Z,14.36
2018-07-03T23:05:33.272Z,14.42
2018-07-03T23:06:33.290Z,14.33
2018-07-03T23:07:33.313Z,14.43
2018-07-03T23:08:33.328Z,14.39
2018-07-03T23:09:33.348Z,14.46
2018-07-03T23:10:33.366Z,14.42
2018-07-03T23:11:33.386Z,14.43
2018-07-03T23:12:33.406Z,14.42
2018-07-03T23:13:33.428Z,14.42
2018-07-03T23:14:33.447Z,14.43
2018-07-03T23:15:33.467Z,14.47
2018-07-03T23:16:33.490Z,14.47
2018-07-03T23:17:33.505Z,14.45
2018-07-03T23:18:33.523Z,14.43
2018-07-03T23:19:33.542Z,14.43
2018-07-03T23:20:33.564Z,14.42
2018-07-03T23:21:33.583Z,14.37
2018-07-03T23:22:33.603Z,14.39
2018-07-03T23:23:33.621Z,14.33
2018-07-03T23:24:33.640Z,14.35
2018-07-03T23:25:33.660Z,14.33
2018-07-03T23:26:33.680Z,14.28
2018-07-03T23:27:33.700Z,14.36
2018-07-03T23:28:33.720Z,14.35
2018-07-03T23:29:33.742Z,14.27
2018-07-03T23:30:33.788Z,14.36
2018-07-03T23:31:33.779Z,14.33
2018-07-03T23:32:33.798Z,14.32
2018-07-03T23:33:33.821Z,14.29
2018-07-03T23:34:33.843Z,14.25
2018-07-03T23:35:33.857Z,14.25
2018-07-03T23:36:33.875Z,14.21
2018-07-03T23:37:33.894Z,14.25
2018-07-03T23:38:33.916Z,14.25
2018-07-03T23:39:33.936Z,14.22
2018-07-03T23:40:34.018Z,14.27
2018-07-03T23:41:33.974Z,14.24
2018-07-03T23:42:33.993Z,14.28
2018-07-03T23:43:34.011Z,14.25
2018-07-03T23:44:34.032Z,14.21
2018-07-03T23:45:34.051Z,14.29
2018-07-03T23:46:34.069Z,14.28
2018-07-03T23:47:34.095Z,14.28
2018-07-03T23:48:34.119Z,14.33
2018-07-03T23:49:34.132Z,14.28
2018-07-03T23:50:34.150Z,14.27
2018-07-03T23:51:34.170Z,14.29
2018-07-03T23:52:34.193Z,14.32
2018-07-03T23:53:34.210Z,14.32
2018-07-03T23:54:34.225Z,14.36
2018-07-03T23:55:34.245Z,14.39
2018-07-03T23:56:34.268Z,14.32
2018-07-03T23:57:34.284Z,14.42
2018-07-03T23:58:34.303Z,14.45
2018-07-03T23:59:34.326Z,14.43
